sensor_id;sensor_type;location;lat;lon;timestamp;P1;durP1;ratioP1;P2;durP2;ratioP2
26530;SDS011;14201;43.188;24.160;2022-09-09T05:49:58;10.38;;;4.85;;
26530;SDS011;14201;43.188;24.160;2022-09-09T05:52:24;8.23;;;4.82;;
26530;SDS011;14201;43.188;24.160;2022-09-09T05:54:51;9.23;;;4.82;;
26530;SDS011;14201;43.188;24.160;2022-09-09T05:57:16;11.13;;;5.32;;
26530;SDS011;14201;43.188;24.160;2022-09-09T05:59:44;13.07;;;5.43;;
26530;SDS011;14201;43.188;24.160;2022-09-09T06:02:09;10.57;;;4.95;;
26530;SDS011;14201;43.188;24.160;2022-09-09T06:04:35;8.30;;;4.53;;
26530;SDS011;14201;43.188;24.160;2022-09-09T06:07:00;9.88;;;4.07;;
26530;SDS011;14201;43.188;24.160;2022-09-09T06:09:26;9.70;;;4.13;;
26530;SDS011;14201;43.188;24.160;2022-09-09T06:11:52;7.28;;;4.00;;
26530;SDS011;14201;43.188;24.160;2022-09-09T06:14:19;5.80;;;3.90;;
26530;SDS011;14201;43.188;24.160;2022-09-09T06:16:45;9.38;;;4.30;;
26530;SDS011;14201;43.188;24.160;2022-09-09T06:19:11;10.82;;;4.13;;
26530;SDS011;14201;43.188;24.160;2022-09-09T06:21:38;6.85;;;4.32;;
26530;SDS011;14201;43.188;24.160;2022-09-09T06:24:04;8.15;;;4.40;;
26530;SDS011;14201;43.188;24.160;2022-09-09T06:26:32;8.88;;;4.05;;
26530;SDS011;14201;43.188;24.160;2022-09-09T06:28:59;7.85;;;3.78;;
26530;SDS011;14201;43.188;24.160;2022-09-09T06:31:26;7.38;;;3.70;;
26530;SDS011;14201;43.188;24.160;2022-09-09T06:33:55;4.15;;;3.13;;
26530;SDS011;14201;43.188;24.160;2022-09-09T06:36:23;6.43;;;3.70;;
26530;SDS011;14201;43.188;24.160;2022-09-09T06:38:51;6.47;;;3.72;;
26530;SDS011;14201;43.188;24.160;2022-09-09T06:41:17;8.10;;;3.30;;
26530;SDS011;14201;43.188;24.160;2022-09-09T06:43:45;7.00;;;3.55;;
26530;SDS011;14201;43.188;24.160;2022-09-09T06:46:13;8.15;;;3.40;;
26530;SDS011;14201;43.188;24.160;2022-09-09T06:48:40;6.35;;;3.40;;
26530;SDS011;14201;43.188;24.160;2022-09-09T06:51:07;6.40;;;3.22;;
26530;SDS011;14201;43.188;24.160;2022-09-09T06:53:45;5.72;;;3.17;;
26530;SDS011;14201;43.188;24.160;2022-09-09T06:58:43;6.38;;;2.80;;
26530;SDS011;14201;43.188;24.160;2022-09-09T07:01:11;5.03;;;3.10;;
26530;SDS011;14201;43.188;24.160;2022-09-09T07:03:38;4.78;;;3.08;;
26530;SDS011;14201;43.188;24.160;2022-09-09T07:06:05;4.57;;;2.80;;
26530;SDS011;14201;43.188;24.160;2022-09-09T07:08:32;5.88;;;3.08;;
26530;SDS011;14201;43.188;24.160;2022-09-09T07:11:02;6.13;;;2.85;;
26530;SDS011;14201;43.188;24.160;2022-09-09T07:13:32;7.15;;;2.90;;
26530;SDS011;14201;43.188;24.160;2022-09-09T07:16:05;5.82;;;3.00;;
26530;SDS011;14201;43.188;24.160;2022-09-09T07:18:32;5.80;;;3.08;;
26530;SDS011;14201;43.188;24.160;2022-09-09T07:20:59;7.65;;;3.05;;
26530;SDS011;14201;43.188;24.160;2022-09-09T07:23:27;5.78;;;2.63;;
26530;SDS011;14201;43.188;24.160;2022-09-09T07:25:53;8.98;;;3.17;;
26530;SDS011;14201;43.188;24.160;2022-09-09T07:28:20;6.43;;;2.75;;
26530;SDS011;14201;43.188;24.160;2022-09-09T07:30:59;6.68;;;2.75;;
26530;SDS011;14201;43.188;24.160;2022-09-09T07:33:27;6.22;;;2.65;;
26530;SDS011;14201;43.188;24.160;2022-09-09T07:36:40;4.75;;;2.90;;
26530;SDS011;14201;43.188;24.160;2022-09-09T07:38:49;6.40;;;2.70;;
26530;SDS011;14201;43.188;24.160;2022-09-09T07:41:24;5.03;;;2.78;;
26530;SDS011;14201;43.188;24.160;2022-09-09T07:43:52;5.43;;;2.63;;
26530;SDS011;14201;43.188;24.160;2022-09-09T07:46:21;4.45;;;2.90;;
26530;SDS011;14201;43.188;24.160;2022-09-09T07:48:52;8.35;;;2.80;;
26530;SDS011;14201;43.188;24.160;2022-09-09T07:51:24;7.78;;;2.63;;
26530;SDS011;14201;43.188;24.160;2022-09-09T07:53:53;3.80;;;2.72;;
26530;SDS011;14201;43.188;24.160;2022-09-09T07:56:22;5.88;;;2.85;;
26530;SDS011;14201;43.188;24.160;2022-09-09T07:58:50;6.93;;;2.55;;
26530;SDS011;14201;43.188;24.160;2022-09-09T08:01:18;4.28;;;2.50;;
26530;SDS011;14201;43.188;24.160;2022-09-09T08:03:52;6.28;;;2.90;;
26530;SDS011;14201;43.188;24.160;2022-09-09T08:06:20;6.72;;;2.75;;
26530;SDS011;14201;43.188;24.160;2022-09-09T08:08:49;8.02;;;2.80;;
26530;SDS011;14201;43.188;24.160;2022-09-09T08:11:15;4.13;;;2.35;;
26530;SDS011;14201;43.188;24.160;2022-09-09T08:13:41;6.35;;;2.80;;
26530;SDS011;14201;43.188;24.160;2022-09-09T08:16:12;9.48;;;3.13;;
26530;SDS011;14201;43.188;24.160;2022-09-09T08:18:40;10.25;;;2.70;;
26530;SDS011;14201;43.188;24.160;2022-09-09T08:23:37;7.70;;;3.20;;
26530;SDS011;14201;43.188;24.160;2022-09-09T08:26:11;9.20;;;2.90;;
26530;SDS011;14201;43.188;24.160;2022-09-09T08:28:42;9.88;;;3.15;;
26530;SDS011;14201;43.188;24.160;2022-09-09T08:31:15;10.68;;;3.20;;
26530;SDS011;14201;43.188;24.160;2022-09-09T08:33:43;6.47;;;3.40;;
26530;SDS011;14201;43.188;24.160;2022-09-09T08:36:20;6.05;;;3.50;;
26530;SDS011;14201;43.188;24.160;2022-09-09T08:38:48;5.00;;;3.10;;
26530;SDS011;14201;43.188;24.160;2022-09-09T08:43:46;8.02;;;3.05;;
26530;SDS011;14201;43.188;24.160;2022-09-09T08:46:59;9.10;;;3.00;;
26530;SDS011;14201;43.188;24.160;2022-09-09T08:49:24;9.02;;;3.47;;
26530;SDS011;14201;43.188;24.160;2022-09-09T08:51:56;8.10;;;3.08;;
26530;SDS011;14201;43.188;24.160;2022-09-09T08:54:23;10.70;;;3.15;;
26530;SDS011;14201;43.188;24.160;2022-09-09T08:56:51;6.28;;;2.67;;
26530;SDS011;14201;43.188;24.160;2022-09-09T08:59:17;9.02;;;3.08;;
26530;SDS011;14201;43.188;24.160;2022-09-09T09:12:25;6.78;;;3.08;;
26530;SDS011;14201;43.188;24.160;2022-09-09T09:17:21;8.18;;;3.10;;
26530;SDS011;14201;43.188;24.160;2022-09-09T09:19:50;7.82;;;3.10;;
26530;SDS011;14201;43.188;24.160;2022-09-09T09:27:25;9.13;;;3.00;;
26530;SDS011;14201;43.188;24.160;2022-09-09T09:29:56;9.32;;;2.92;;
26530;SDS011;14201;43.188;24.160;2022-09-09T09:32:24;11.77;;;3.15;;
26530;SDS011;14201;43.188;24.160;2022-09-09T09:34:54;8.48;;;3.00;;
26530;SDS011;14201;43.188;24.160;2022-09-09T09:37:26;5.80;;;3.47;;
26530;SDS011;14201;43.188;24.160;2022-09-09T09:39:54;8.43;;;2.83;;
26530;SDS011;14201;43.188;24.160;2022-09-09T09:42:20;4.60;;;2.95;;
26530;SDS011;14201;43.188;24.160;2022-09-09T09:44:46;7.80;;;3.03;;
26530;SDS011;14201;43.188;24.160;2022-09-09T09:47:12;10.10;;;3.38;;
26530;SDS011;14201;43.188;24.160;2022-09-09T09:49:59;8.98;;;3.25;;
26530;SDS011;14201;43.188;24.160;2022-09-09T09:52:28;11.90;;;3.45;;
26530;SDS011;14201;43.188;24.160;2022-09-09T09:54:56;10.70;;;3.70;;
26530;SDS011;14201;43.188;24.160;2022-09-09T09:57:28;6.80;;;2.78;;
26530;SDS011;14201;43.188;24.160;2022-09-09T10:02:40;6.93;;;3.13;;
26530;SDS011;14201;43.188;24.160;2022-09-09T10:05:21;8.23;;;2.90;;
26530;SDS011;14201;43.188;24.160;2022-09-09T10:37:00;11.95;;;4.22;;
26530;SDS011;14201;43.188;24.160;2022-09-09T10:39:39;6.88;;;3.28;;
26530;SDS011;14201;43.188;24.160;2022-09-09T10:42:15;9.10;;;3.50;;
26530;SDS011;14201;43.188;24.160;2022-09-09T10:50:14;10.75;;;4.00;;
26530;SDS011;14201;43.188;24.160;2022-09-09T10:56:07;10.27;;;4.20;;
26530;SDS011;14201;43.188;24.160;2022-09-09T10:58:38;6.65;;;4.28;;
26530;SDS011;14201;43.188;24.160;2022-09-09T11:01:21;9.35;;;4.10;;
26530;SDS011;14201;43.188;24.160;2022-09-09T11:03:57;9.18;;;3.95;;
26530;SDS011;14201;43.188;24.160;2022-09-09T11:06:32;7.68;;;3.78;;
26530;SDS011;14201;43.188;24.160;2022-09-09T11:09:04;11.68;;;4.35;;
26530;SDS011;14201;43.188;24.160;2022-09-09T11:14:20;10.35;;;4.20;;
26530;SDS011;14201;43.188;24.160;2022-09-09T11:17:02;8.40;;;4.10;;
26530;SDS011;14201;43.188;24.160;2022-09-09T11:22:07;12.07;;;4.78;;
26530;SDS011;14201;43.188;24.160;2022-09-09T11:24:59;12.00;;;4.50;;
26530;SDS011;14201;43.188;24.160;2022-09-09T11:41:04;11.38;;;4.70;;
26530;SDS011;14201;43.188;24.160;2022-09-09T11:46:13;10.75;;;5.13;;
26530;SDS011;14201;43.188;24.160;2022-09-09T11:48:45;12.32;;;4.88;;
26530;SDS011;14201;43.188;24.160;2022-09-09T11:59:27;12.75;;;4.93;;
26530;SDS011;14201;43.188;24.160;2022-09-09T12:20:14;9.73;;;4.95;;
26530;SDS011;14201;43.188;24.160;2022-09-09T12:25:33;10.88;;;5.22;;
26530;SDS011;14201;43.188;24.160;2022-09-09T12:28:19;16.73;;;5.53;;
26530;SDS011;14201;43.188;24.160;2022-09-09T17:16:03;20.83;;;7.88;;
26530;SDS011;14201;43.188;24.160;2022-09-09T17:18:29;14.10;;;7.45;;
26530;SDS011;14201;43.188;24.160;2022-09-09T17:20:55;12.85;;;7.25;;
26530;SDS011;14201;43.188;24.160;2022-09-09T17:23:21;18.05;;;7.30;;
26530;SDS011;14201;43.188;24.160;2022-09-09T17:25:55;17.98;;;8.25;;
26530;SDS011;14201;43.188;24.160;2022-09-09T17:28:22;16.83;;;8.13;;
26530;SDS011;14201;43.188;24.160;2022-09-09T17:30:51;22.43;;;8.27;;
26530;SDS011;14201;43.188;24.160;2022-09-09T17:33:17;17.25;;;7.53;;
26530;SDS011;14201;43.188;24.160;2022-09-09T17:35:44;15.50;;;8.20;;
26530;SDS011;14201;43.188;24.160;2022-09-09T17:38:10;16.77;;;8.80;;
26530;SDS011;14201;43.188;24.160;2022-09-09T17:40:37;43.53;;;9.43;;
26530;SDS011;14201;43.188;24.160;2022-09-09T17:43:03;15.15;;;7.47;;
26530;SDS011;14201;43.188;24.160;2022-09-09T17:45:28;15.85;;;8.00;;
26530;SDS011;14201;43.188;24.160;2022-09-09T17:47:55;33.13;;;8.70;;
26530;SDS011;14201;43.188;24.160;2022-09-09T17:50:21;25.80;;;8.77;;
26530;SDS011;14201;43.188;24.160;2022-09-09T17:52:47;24.08;;;8.30;;
26530;SDS011;14201;43.188;24.160;2022-09-09T17:55:13;24.45;;;8.20;;
26530;SDS011;14201;43.188;24.160;2022-09-09T17:57:40;14.27;;;8.38;;
26530;SDS011;14201;43.188;24.160;2022-09-09T18:00:07;19.02;;;8.00;;
26530;SDS011;14201;43.188;24.160;2022-09-09T18:02:33;22.15;;;7.53;;
26530;SDS011;14201;43.188;24.160;2022-09-09T18:04:59;15.57;;;8.00;;
26530;SDS011;14201;43.188;24.160;2022-09-09T18:07:26;13.05;;;8.13;;
26530;SDS011;14201;43.188;24.160;2022-09-09T18:09:52;14.43;;;8.35;;
26530;SDS011;14201;43.188;24.160;2022-09-09T18:12:17;14.20;;;7.65;;
26530;SDS011;14201;43.188;24.160;2022-09-09T18:14:43;11.98;;;8.30;;
26530;SDS011;14201;43.188;24.160;2022-09-09T18:17:09;16.50;;;8.30;;
26530;SDS011;14201;43.188;24.160;2022-09-09T18:19:35;16.05;;;8.10;;
26530;SDS011;14201;43.188;24.160;2022-09-09T18:22:02;13.35;;;8.75;;
26530;SDS011;14201;43.188;24.160;2022-09-09T18:26:55;15.32;;;8.50;;
26530;SDS011;14201;43.188;24.160;2022-09-09T18:29:21;19.17;;;8.63;;
26530;SDS011;14201;43.188;24.160;2022-09-09T18:34:18;16.85;;;8.40;;
26530;SDS011;14201;43.188;24.160;2022-09-09T18:36:48;22.05;;;9.25;;
26530;SDS011;14201;43.188;24.160;2022-09-09T18:39:18;17.15;;;9.40;;
26530;SDS011;14201;43.188;24.160;2022-09-09T18:41:45;15.88;;;8.05;;
26530;SDS011;14201;43.188;24.160;2022-09-09T18:44:17;14.18;;;8.48;;
26530;SDS011;14201;43.188;24.160;2022-09-09T18:46:46;14.07;;;7.75;;
26530;SDS011;14201;43.188;24.160;2022-09-09T18:49:12;22.23;;;8.25;;
26530;SDS011;14201;43.188;24.160;2022-09-09T18:51:40;12.80;;;8.48;;
26530;SDS011;14201;43.188;24.160;2022-09-09T18:54:07;15.30;;;7.72;;
26530;SDS011;14201;43.188;24.160;2022-09-09T18:56:40;14.40;;;8.65;;
26530;SDS011;14201;43.188;24.160;2022-09-09T18:59:06;12.73;;;8.77;;
26530;SDS011;14201;43.188;24.160;2022-09-09T19:01:35;15.80;;;9.10;;
26530;SDS011;14201;43.188;24.160;2022-09-09T19:04:01;16.47;;;9.33;;
26530;SDS011;14201;43.188;24.160;2022-09-09T19:06:32;19.45;;;10.95;;
26530;SDS011;14201;43.188;24.160;2022-09-09T19:09:01;18.95;;;10.13;;
26530;SDS011;14201;43.188;24.160;2022-09-09T19:11:27;18.08;;;10.98;;
26530;SDS011;14201;43.188;24.160;2022-09-09T19:13:54;18.60;;;10.10;;
26530;SDS011;14201;43.188;24.160;2022-09-09T19:16:23;16.35;;;10.57;;
26530;SDS011;14201;43.188;24.160;2022-09-09T19:18:51;16.30;;;10.75;;
26530;SDS011;14201;43.188;24.160;2022-09-09T19:21:21;19.10;;;10.00;;
26530;SDS011;14201;43.188;24.160;2022-09-09T19:23:56;12.50;;;9.60;;
26530;SDS011;14201;43.188;24.160;2022-09-09T19:26:31;16.00;;;9.30;;
26530;SDS011;14201;43.188;24.160;2022-09-09T19:28:59;23.55;;;10.13;;
26530;SDS011;14201;43.188;24.160;2022-09-09T19:31:26;21.42;;;10.27;;
26530;SDS011;14201;43.188;24.160;2022-09-09T19:33:54;16.95;;;10.40;;
26530;SDS011;14201;43.188;24.160;2022-09-09T19:36:21;21.98;;;10.35;;
26530;SDS011;14201;43.188;24.160;2022-09-09T19:38:48;14.85;;;9.82;;
26530;SDS011;14201;43.188;24.160;2022-09-09T19:41:18;20.02;;;9.77;;
26530;SDS011;14201;43.188;24.160;2022-09-09T19:43:47;18.38;;;9.05;;
26530;SDS011;14201;43.188;24.160;2022-09-09T19:46:15;16.63;;;8.80;;
26530;SDS011;14201;43.188;24.160;2022-09-09T19:48:42;15.77;;;9.73;;
26530;SDS011;14201;43.188;24.160;2022-09-09T19:51:10;13.25;;;9.38;;
26530;SDS011;14201;43.188;24.160;2022-09-09T19:53:41;20.75;;;9.90;;
26530;SDS011;14201;43.188;24.160;2022-09-09T19:56:12;18.08;;;10.38;;
26530;SDS011;14201;43.188;24.160;2022-09-09T19:58:39;16.83;;;10.00;;
26530;SDS011;14201;43.188;24.160;2022-09-09T20:01:09;18.45;;;10.23;;
26530;SDS011;14201;43.188;24.160;2022-09-09T20:06:05;17.38;;;11.00;;
26530;SDS011;14201;43.188;24.160;2022-09-09T20:08:32;19.02;;;10.25;;
26530;SDS011;14201;43.188;24.160;2022-09-09T20:10:59;18.60;;;9.73;;
26530;SDS011;14201;43.188;24.160;2022-09-09T20:13:29;15.23;;;9.85;;
26530;SDS011;14201;43.188;24.160;2022-09-09T20:18:30;14.70;;;10.02;;
26530;SDS011;14201;43.188;24.160;2022-09-09T20:21:01;14.35;;;9.85;;
26530;SDS011;14201;43.188;24.160;2022-09-09T20:23:33;17.30;;;10.13;;
26530;SDS011;14201;43.188;24.160;2022-09-09T20:28:27;17.67;;;11.48;;
26530;SDS011;14201;43.188;24.160;2022-09-09T20:35:46;17.70;;;9.80;;
26530;SDS011;14201;43.188;24.160;2022-09-09T20:38:12;15.52;;;9.85;;
26530;SDS011;14201;43.188;24.160;2022-09-09T20:40:38;15.63;;;9.45;;
26530;SDS011;14201;43.188;24.160;2022-09-09T20:43:04;13.73;;;9.05;;
26530;SDS011;14201;43.188;24.160;2022-09-09T20:45:34;13.40;;;9.05;;
26530;SDS011;14201;43.188;24.160;2022-09-09T20:48:02;18.63;;;10.10;;
26530;SDS011;14201;43.188;24.160;2022-09-09T20:50:33;22.42;;;11.48;;
26530;SDS011;14201;43.188;24.160;2022-09-09T20:53:00;14.50;;;10.70;;
26530;SDS011;14201;43.188;24.160;2022-09-09T21:10:04;17.33;;;9.60;;
26530;SDS011;14201;43.188;24.160;2022-09-09T21:12:30;15.65;;;9.40;;
26530;SDS011;14201;43.188;24.160;2022-09-09T21:14:56;14.57;;;9.32;;
26530;SDS011;14201;43.188;24.160;2022-09-09T21:17:21;16.92;;;9.70;;
26530;SDS011;14201;43.188;24.160;2022-09-09T21:22:13;16.75;;;8.88;;
26530;SDS011;14201;43.188;24.160;2022-09-09T21:27:04;13.18;;;10.30;;
26530;SDS011;14201;43.188;24.160;2022-09-09T21:31:55;15.52;;;9.45;;
26530;SDS011;14201;43.188;24.160;2022-09-09T21:39:12;16.50;;;10.80;;
26530;SDS011;14201;43.188;24.160;2022-09-09T21:44:04;15.30;;;11.10;;
26530;SDS011;14201;43.188;24.160;2022-09-09T21:46:30;13.63;;;9.55;;
26530;SDS011;14201;43.188;24.160;2022-09-09T21:53:47;14.70;;;10.10;;
26530;SDS011;14201;43.188;24.160;2022-09-09T21:56:14;11.88;;;10.23;;
26530;SDS011;14201;43.188;24.160;2022-09-09T21:58:42;13.13;;;10.02;;
26530;SDS011;14201;43.188;24.160;2022-09-09T22:01:08;18.40;;;10.70;;
26530;SDS011;14201;43.188;24.160;2022-09-09T22:03:36;17.13;;;10.80;;
26530;SDS011;14201;43.188;24.160;2022-09-09T22:06:06;12.75;;;10.25;;
26530;SDS011;14201;43.188;24.160;2022-09-09T22:08:32;17.42;;;10.93;;
26530;SDS011;14201;43.188;24.160;2022-09-09T22:11:04;20.20;;;10.48;;
26530;SDS011;14201;43.188;24.160;2022-09-09T22:13:31;13.35;;;10.23;;
26530;SDS011;14201;43.188;24.160;2022-09-09T22:16:00;13.73;;;9.82;;
26530;SDS011;14201;43.188;24.160;2022-09-09T22:18:27;17.15;;;11.25;;
26530;SDS011;14201;43.188;24.160;2022-09-09T22:20:54;14.35;;;9.73;;
26530;SDS011;14201;43.188;24.160;2022-09-09T22:23:19;21.27;;;10.25;;
26530;SDS011;14201;43.188;24.160;2022-09-09T22:25:47;13.80;;;10.57;;
26530;SDS011;14201;43.188;24.160;2022-09-09T22:28:14;17.40;;;9.90;;
26530;SDS011;14201;43.188;24.160;2022-09-09T22:30:40;18.90;;;10.93;;
26530;SDS011;14201;43.188;24.160;2022-09-09T22:33:06;18.65;;;10.05;;
26530;SDS011;14201;43.188;24.160;2022-09-09T22:35:40;14.20;;;9.90;;
26530;SDS011;14201;43.188;24.160;2022-09-09T22:38:10;12.18;;;9.88;;
26530;SDS011;14201;43.188;24.160;2022-09-09T22:40:36;18.55;;;9.55;;
26530;SDS011;14201;43.188;24.160;2022-09-09T22:43:04;13.10;;;10.07;;
26530;SDS011;14201;43.188;24.160;2022-09-09T22:45:32;16.52;;;10.18;;
26530;SDS011;14201;43.188;24.160;2022-09-09T22:47:58;15.20;;;10.50;;
26530;SDS011;14201;43.188;24.160;2022-09-09T22:50:25;12.38;;;10.00;;
26530;SDS011;14201;43.188;24.160;2022-09-09T22:52:52;19.00;;;10.57;;
26530;SDS011;14201;43.188;24.160;2022-09-09T22:55:18;14.40;;;9.40;;
26530;SDS011;14201;43.188;24.160;2022-09-09T22:57:43;15.52;;;9.93;;
26530;SDS011;14201;43.188;24.160;2022-09-09T23:00:09;16.83;;;10.00;;
26530;SDS011;14201;43.188;24.160;2022-09-09T23:02:37;17.70;;;9.85;;
26530;SDS011;14201;43.188;24.160;2022-09-09T23:05:04;22.02;;;9.85;;
26530;SDS011;14201;43.188;24.160;2022-09-09T23:07:32;12.63;;;10.05;;
26530;SDS011;14201;43.188;24.160;2022-09-09T23:10:02;12.05;;;9.80;;
26530;SDS011;14201;43.188;24.160;2022-09-09T23:12:29;14.75;;;9.68;;
26530;SDS011;14201;43.188;24.160;2022-09-09T23:14:55;11.48;;;9.93;;
26530;SDS011;14201;43.188;24.160;2022-09-09T23:17:21;15.48;;;9.93;;
26530;SDS011;14201;43.188;24.160;2022-09-09T23:19:47;11.80;;;9.57;;
26530;SDS011;14201;43.188;24.160;2022-09-09T23:22:22;13.18;;;9.57;;
26530;SDS011;14201;43.188;24.160;2022-09-09T23:24:48;15.98;;;10.73;;
26530;SDS011;14201;43.188;24.160;2022-09-09T23:27:16;17.60;;;10.65;;
26530;SDS011;14201;43.188;24.160;2022-09-09T23:29:42;15.50;;;10.18;;
26530;SDS011;14201;43.188;24.160;2022-09-09T23:32:08;14.40;;;10.43;;
26530;SDS011;14201;43.188;24.160;2022-09-09T23:34:33;16.27;;;10.23;;
26530;SDS011;14201;43.188;24.160;2022-09-09T23:36:59;13.80;;;9.90;;
26530;SDS011;14201;43.188;24.160;2022-09-09T23:39:25;12.43;;;9.90;;
26530;SDS011;14201;43.188;24.160;2022-09-09T23:41:51;13.60;;;9.70;;
26530;SDS011;14201;43.188;24.160;2022-09-09T23:44:16;15.32;;;9.93;;
26530;SDS011;14201;43.188;24.160;2022-09-09T23:46:42;12.70;;;10.18;;
26530;SDS011;14201;43.188;24.160;2022-09-09T23:49:08;14.52;;;9.77;;
26530;SDS011;14201;43.188;24.160;2022-09-09T23:51:34;11.40;;;9.32;;
26530;SDS011;14201;43.188;24.160;2022-09-09T23:54:01;13.98;;;9.82;;
26530;SDS011;14201;43.188;24.160;2022-09-09T23:56:32;16.58;;;10.32;;
26530;SDS011;14201;43.188;24.160;2022-09-09T23:59:01;16.20;;;10.82;;
